sensor_id;sensor_type;location;lat;lon;timestamp;P1;durP1;ratioP1;P2;durP2;ratioP2
68074;SDS011;54864;52.002;5.468;2022-08-19T00:00:31;8.77;;;7.85;;
68074;SDS011;54864;52.002;5.468;2022-08-19T00:01:32;8.50;;;7.55;;
68074;SDS011;54864;52.002;5.468;2022-08-19T00:02:35;9.40;;;7.68;;
68074;SDS011;54864;52.002;5.468;2022-08-19T00:03:37;11.05;;;7.88;;
68074;SDS011;54864;52.002;5.468;2022-08-19T00:04:38;11.10;;;9.30;;
68074;SDS011;54864;52.002;5.468;2022-08-19T00:05:40;9.00;;;8.10;;
68074;SDS011;54864;52.002;5.468;2022-08-19T00:06:43;10.60;;;7.93;;
68074;SDS011;54864;52.002;5.468;2022-08-19T00:07:45;10.38;;;8.07;;
68074;SDS011;54864;52.002;5.468;2022-08-19T00:08:47;9.45;;;8.30;;
68074;SDS011;54864;52.002;5.468;2022-08-19T00:09:47;8.80;;;7.90;;
68074;SDS011;54864;52.002;5.468;2022-08-19T00:10:50;9.63;;;8.10;;
68074;SDS011;54864;52.002;5.468;2022-08-19T00:11:52;9.48;;;7.78;;
68074;SDS011;54864;52.002;5.468;2022-08-19T00:12:56;9.90;;;8.07;;
68074;SDS011;54864;52.002;5.468;2022-08-19T00:13:57;9.17;;;7.67;;
68074;SDS011;54864;52.002;5.468;2022-08-19T00:14:58;12.00;;;8.18;;
68074;SDS011;54864;52.002;5.468;2022-08-19T00:16:00;9.38;;;8.30;;
68074;SDS011;54864;52.002;5.468;2022-08-19T00:17:02;14.25;;;8.43;;
68074;SDS011;54864;52.002;5.468;2022-08-19T00:18:04;10.00;;;7.95;;
68074;SDS011;54864;52.002;5.468;2022-08-19T00:19:06;9.48;;;7.80;;
68074;SDS011;54864;52.002;5.468;2022-08-19T00:20:08;9.15;;;8.07;;
68074;SDS011;54864;52.002;5.468;2022-08-19T00:21:13;11.88;;;8.35;;
68074;SDS011;54864;52.002;5.468;2022-08-19T00:22:14;8.23;;;7.43;;
68074;SDS011;54864;52.002;5.468;2022-08-19T00:23:17;11.65;;;8.18;;
68074;SDS011;54864;52.002;5.468;2022-08-19T00:24:18;9.38;;;8.35;;
68074;SDS011;54864;52.002;5.468;2022-08-19T00:25:20;10.05;;;8.10;;
68074;SDS011;54864;52.002;5.468;2022-08-19T00:26:23;10.50;;;8.75;;
68074;SDS011;54864;52.002;5.468;2022-08-19T00:27:25;10.85;;;9.10;;
68074;SDS011;54864;52.002;5.468;2022-08-19T00:28:26;12.03;;;9.53;;
68074;SDS011;54864;52.002;5.468;2022-08-19T00:29:27;9.93;;;8.90;;
68074;SDS011;54864;52.002;5.468;2022-08-19T00:30:28;11.43;;;8.95;;
68074;SDS011;54864;52.002;5.468;2022-08-19T00:31:30;11.60;;;9.52;;
68074;SDS011;54864;52.002;5.468;2022-08-19T00:32:31;14.27;;;9.38;;
68074;SDS011;54864;52.002;5.468;2022-08-19T00:33:34;10.10;;;9.13;;
68074;SDS011;54864;52.002;5.468;2022-08-19T00:34:35;10.88;;;9.20;;
68074;SDS011;54864;52.002;5.468;2022-08-19T00:35:37;13.55;;;9.02;;
68074;SDS011;54864;52.002;5.468;2022-08-19T00:36:38;10.32;;;9.32;;
68074;SDS011;54864;52.002;5.468;2022-08-19T00:37:41;12.00;;;9.85;;
68074;SDS011;54864;52.002;5.468;2022-08-19T00:38:43;10.45;;;9.40;;
68074;SDS011;54864;52.002;5.468;2022-08-19T00:39:45;12.05;;;9.43;;
68074;SDS011;54864;52.002;5.468;2022-08-19T00:40:46;14.07;;;10.48;;
68074;SDS011;54864;52.002;5.468;2022-08-19T00:41:49;15.02;;;10.35;;
68074;SDS011;54864;52.002;5.468;2022-08-19T00:42:51;15.13;;;10.10;;
68074;SDS011;54864;52.002;5.468;2022-08-19T00:43:58;12.60;;;9.88;;
68074;SDS011;54864;52.002;5.468;2022-08-19T00:45:01;12.52;;;10.45;;
68074;SDS011;54864;52.002;5.468;2022-08-19T00:46:05;11.10;;;9.95;;
68074;SDS011;54864;52.002;5.468;2022-08-19T00:47:05;12.13;;;10.65;;
68074;SDS011;54864;52.002;5.468;2022-08-19T00:48:07;11.40;;;10.00;;
68074;SDS011;54864;52.002;5.468;2022-08-19T00:49:09;12.93;;;9.83;;
68074;SDS011;54864;52.002;5.468;2022-08-19T00:50:16;13.65;;;10.13;;
68074;SDS011;54864;52.002;5.468;2022-08-19T00:51:20;14.03;;;10.47;;
68074;SDS011;54864;52.002;5.468;2022-08-19T00:52:24;12.82;;;10.13;;
68074;SDS011;54864;52.002;5.468;2022-08-19T00:53:29;14.83;;;10.10;;
68074;SDS011;54864;52.002;5.468;2022-08-19T00:54:33;12.13;;;9.63;;
68074;SDS011;54864;52.002;5.468;2022-08-19T00:55:36;12.65;;;9.90;;
68074;SDS011;54864;52.002;5.468;2022-08-19T00:56:40;13.20;;;10.07;;
68074;SDS011;54864;52.002;5.468;2022-08-19T00:57:43;10.73;;;9.70;;
68074;SDS011;54864;52.002;5.468;2022-08-19T00:58:50;12.05;;;10.25;;
68074;SDS011;54864;52.002;5.468;2022-08-19T00:59:51;17.23;;;11.33;;
68074;SDS011;54864;52.002;5.468;2022-08-19T01:00:56;17.00;;;10.73;;
68074;SDS011;54864;52.002;5.468;2022-08-19T01:01:58;12.98;;;9.65;;
68074;SDS011;54864;52.002;5.468;2022-08-19T01:03:00;13.10;;;10.02;;
68074;SDS011;54864;52.002;5.468;2022-08-19T01:04:00;12.82;;;10.20;;
68074;SDS011;54864;52.002;5.468;2022-08-19T01:05:04;12.00;;;10.10;;
68074;SDS011;54864;52.002;5.468;2022-08-19T01:06:10;17.20;;;10.20;;
68074;SDS011;54864;52.002;5.468;2022-08-19T01:07:11;12.27;;;10.15;;
68074;SDS011;54864;52.002;5.468;2022-08-19T01:08:13;13.82;;;10.15;;
68074;SDS011;54864;52.002;5.468;2022-08-19T01:09:17;12.68;;;10.18;;
68074;SDS011;54864;52.002;5.468;2022-08-19T01:10:19;12.35;;;10.85;;
68074;SDS011;54864;52.002;5.468;2022-08-19T01:11:25;14.20;;;10.73;;
68074;SDS011;54864;52.002;5.468;2022-08-19T01:12:27;12.80;;;10.60;;
68074;SDS011;54864;52.002;5.468;2022-08-19T01:13:32;14.77;;;10.48;;
68074;SDS011;54864;52.002;5.468;2022-08-19T01:14:34;13.45;;;10.93;;
68074;SDS011;54864;52.002;5.468;2022-08-19T01:15:38;11.38;;;10.18;;
68074;SDS011;54864;52.002;5.468;2022-08-19T01:16:45;15.00;;;10.20;;
68074;SDS011;54864;52.002;5.468;2022-08-19T01:17:46;11.95;;;10.75;;
68074;SDS011;54864;52.002;5.468;2022-08-19T01:18:50;12.20;;;10.63;;
68074;SDS011;54864;52.002;5.468;2022-08-19T01:19:52;12.23;;;10.07;;
68074;SDS011;54864;52.002;5.468;2022-08-19T01:20:53;13.98;;;10.23;;
68074;SDS011;54864;52.002;5.468;2022-08-19T01:22:00;14.43;;;10.52;;
68074;SDS011;54864;52.002;5.468;2022-08-19T01:23:10;12.02;;;9.85;;
68074;SDS011;54864;52.002;5.468;2022-08-19T01:24:13;12.75;;;9.85;;
68074;SDS011;54864;52.002;5.468;2022-08-19T01:25:15;15.23;;;9.93;;
68074;SDS011;54864;52.002;5.468;2022-08-19T01:26:20;12.23;;;10.65;;
68074;SDS011;54864;52.002;5.468;2022-08-19T01:27:23;12.15;;;10.30;;
68074;SDS011;54864;52.002;5.468;2022-08-19T01:28:26;14.52;;;10.68;;
68074;SDS011;54864;52.002;5.468;2022-08-19T01:29:28;14.52;;;10.50;;
68074;SDS011;54864;52.002;5.468;2022-08-19T01:30:31;14.75;;;9.90;;
68074;SDS011;54864;52.002;5.468;2022-08-19T01:31:34;14.98;;;10.55;;
68074;SDS011;54864;52.002;5.468;2022-08-19T01:32:37;13.55;;;11.00;;
68074;SDS011;54864;52.002;5.468;2022-08-19T01:33:37;15.15;;;11.60;;
68074;SDS011;54864;52.002;5.468;2022-08-19T01:34:39;16.33;;;10.98;;
68074;SDS011;54864;52.002;5.468;2022-08-19T01:35:40;14.25;;;11.35;;
68074;SDS011;54864;52.002;5.468;2022-08-19T01:36:43;12.20;;;11.00;;
68074;SDS011;54864;52.002;5.468;2022-08-19T01:37:48;14.82;;;11.18;;
68074;SDS011;54864;52.002;5.468;2022-08-19T01:38:54;15.02;;;11.18;;
68074;SDS011;54864;52.002;5.468;2022-08-19T01:39:56;13.43;;;11.15;;
68074;SDS011;54864;52.002;5.468;2022-08-19T01:40:57;15.57;;;10.98;;
68074;SDS011;54864;52.002;5.468;2022-08-19T01:41:58;16.13;;;11.20;;
68074;SDS011;54864;52.002;5.468;2022-08-19T01:43:03;14.38;;;11.85;;
68074;SDS011;54864;52.002;5.468;2022-08-19T01:44:06;14.38;;;10.68;;
68074;SDS011;54864;52.002;5.468;2022-08-19T01:45:10;15.70;;;11.43;;
68074;SDS011;54864;52.002;5.468;2022-08-19T01:46:11;13.45;;;11.20;;
68074;SDS011;54864;52.002;5.468;2022-08-19T01:47:13;12.68;;;11.15;;
68074;SDS011;54864;52.002;5.468;2022-08-19T01:48:13;13.45;;;11.43;;
68074;SDS011;54864;52.002;5.468;2022-08-19T01:49:16;12.63;;;10.60;;
68074;SDS011;54864;52.002;5.468;2022-08-19T01:50:19;15.07;;;11.35;;
68074;SDS011;54864;52.002;5.468;2022-08-19T01:51:22;16.30;;;11.60;;
68074;SDS011;54864;52.002;5.468;2022-08-19T01:52:23;13.40;;;11.88;;
68074;SDS011;54864;52.002;5.468;2022-08-19T01:53:24;17.25;;;12.02;;
68074;SDS011;54864;52.002;5.468;2022-08-19T01:54:26;13.40;;;11.83;;
68074;SDS011;54864;52.002;5.468;2022-08-19T01:55:28;13.55;;;11.85;;
68074;SDS011;54864;52.002;5.468;2022-08-19T01:56:29;17.13;;;11.80;;
68074;SDS011;54864;52.002;5.468;2022-08-19T01:57:31;13.20;;;11.00;;
68074;SDS011;54864;52.002;5.468;2022-08-19T01:58:33;16.23;;;11.77;;
68074;SDS011;54864;52.002;5.468;2022-08-19T01:59:39;15.30;;;11.77;;
68074;SDS011;54864;52.002;5.468;2022-08-19T02:00:41;16.63;;;11.38;;
68074;SDS011;54864;52.002;5.468;2022-08-19T02:01:45;12.45;;;11.15;;
68074;SDS011;54864;52.002;5.468;2022-08-19T02:02:46;13.70;;;11.37;;
68074;SDS011;54864;52.002;5.468;2022-08-19T02:03:48;16.70;;;11.45;;
68074;SDS011;54864;52.002;5.468;2022-08-19T02:04:48;13.63;;;10.70;;
68074;SDS011;54864;52.002;5.468;2022-08-19T02:05:53;15.15;;;10.30;;
68074;SDS011;54864;52.002;5.468;2022-08-19T02:06:57;12.23;;;10.75;;
68074;SDS011;54864;52.002;5.468;2022-08-19T02:07:59;11.77;;;10.65;;
68074;SDS011;54864;52.002;5.468;2022-08-19T02:09:00;12.98;;;10.88;;
68074;SDS011;54864;52.002;5.468;2022-08-19T02:10:04;12.48;;;10.68;;
68074;SDS011;54864;52.002;5.468;2022-08-19T02:11:08;14.13;;;10.57;;
68074;SDS011;54864;52.002;5.468;2022-08-19T02:12:19;11.43;;;10.23;;
68074;SDS011;54864;52.002;5.468;2022-08-19T02:13:20;14.95;;;11.00;;
68074;SDS011;54864;52.002;5.468;2022-08-19T02:14:22;14.75;;;10.85;;
68074;SDS011;54864;52.002;5.468;2022-08-19T02:15:23;15.95;;;10.60;;
68074;SDS011;54864;52.002;5.468;2022-08-19T02:16:25;13.50;;;10.57;;
68074;SDS011;54864;52.002;5.468;2022-08-19T02:17:26;14.05;;;11.82;;
68074;SDS011;54864;52.002;5.468;2022-08-19T02:18:29;13.32;;;11.05;;
68074;SDS011;54864;52.002;5.468;2022-08-19T02:19:29;13.63;;;10.57;;
68074;SDS011;54864;52.002;5.468;2022-08-19T02:20:32;14.63;;;11.27;;
68074;SDS011;54864;52.002;5.468;2022-08-19T02:21:33;16.95;;;10.57;;
68074;SDS011;54864;52.002;5.468;2022-08-19T02:22:35;14.35;;;10.63;;
68074;SDS011;54864;52.002;5.468;2022-08-19T02:23:36;11.40;;;10.30;;
68074;SDS011;54864;52.002;5.468;2022-08-19T02:24:38;18.35;;;10.82;;
68074;SDS011;54864;52.002;5.468;2022-08-19T02:25:41;13.97;;;11.43;;
68074;SDS011;54864;52.002;5.468;2022-08-19T02:26:44;14.75;;;11.43;;
68074;SDS011;54864;52.002;5.468;2022-08-19T02:27:45;13.07;;;11.25;;
68074;SDS011;54864;52.002;5.468;2022-08-19T02:28:47;14.18;;;11.75;;
68074;SDS011;54864;52.002;5.468;2022-08-19T02:29:48;13.60;;;11.25;;
68074;SDS011;54864;52.002;5.468;2022-08-19T02:30:51;15.52;;;11.88;;
68074;SDS011;54864;52.002;5.468;2022-08-19T02:31:52;16.30;;;12.02;;
68074;SDS011;54864;52.002;5.468;2022-08-19T02:32:54;12.80;;;11.48;;
68074;SDS011;54864;52.002;5.468;2022-08-19T02:33:54;15.10;;;12.03;;
68074;SDS011;54864;52.002;5.468;2022-08-19T02:34:57;14.40;;;12.50;;
68074;SDS011;54864;52.002;5.468;2022-08-19T02:35:58;16.67;;;12.67;;
68074;SDS011;54864;52.002;5.468;2022-08-19T02:36:59;15.32;;;12.10;;
68074;SDS011;54864;52.002;5.468;2022-08-19T02:38:00;14.63;;;12.10;;
68074;SDS011;54864;52.002;5.468;2022-08-19T02:39:19;15.82;;;11.82;;
68074;SDS011;54864;52.002;5.468;2022-08-19T02:40:21;13.18;;;11.77;;
68074;SDS011;54864;52.002;5.468;2022-08-19T02:41:24;17.87;;;11.80;;
68074;SDS011;54864;52.002;5.468;2022-08-19T02:42:27;12.88;;;11.57;;
68074;SDS011;54864;52.002;5.468;2022-08-19T02:43:28;14.80;;;12.10;;
68074;SDS011;54864;52.002;5.468;2022-08-19T02:44:32;14.90;;;12.70;;
68074;SDS011;54864;52.002;5.468;2022-08-19T02:45:33;18.38;;;13.05;;
68074;SDS011;54864;52.002;5.468;2022-08-19T02:46:36;17.77;;;13.13;;
68074;SDS011;54864;52.002;5.468;2022-08-19T02:47:36;14.50;;;13.00;;
68074;SDS011;54864;52.002;5.468;2022-08-19T02:48:38;15.82;;;13.45;;
68074;SDS011;54864;52.002;5.468;2022-08-19T02:49:39;15.90;;;13.68;;
68074;SDS011;54864;52.002;5.468;2022-08-19T02:50:41;15.20;;;13.60;;
68074;SDS011;54864;52.002;5.468;2022-08-19T02:51:43;18.73;;;13.75;;
68074;SDS011;54864;52.002;5.468;2022-08-19T02:52:46;15.63;;;13.70;;
68074;SDS011;54864;52.002;5.468;2022-08-19T02:53:47;18.00;;;13.57;;
68074;SDS011;54864;52.002;5.468;2022-08-19T02:54:48;16.77;;;13.23;;
68074;SDS011;54864;52.002;5.468;2022-08-19T02:55:49;17.05;;;13.23;;
68074;SDS011;54864;52.002;5.468;2022-08-19T02:56:53;15.13;;;13.43;;
68074;SDS011;54864;52.002;5.468;2022-08-19T02:57:54;20.35;;;13.63;;
68074;SDS011;54864;52.002;5.468;2022-08-19T02:58:57;18.05;;;13.27;;
68074;SDS011;54864;52.002;5.468;2022-08-19T02:59:58;18.13;;;13.68;;
68074;SDS011;54864;52.002;5.468;2022-08-19T03:01:01;21.45;;;13.82;;
68074;SDS011;54864;52.002;5.468;2022-08-19T03:02:02;17.77;;;14.13;;
68074;SDS011;54864;52.002;5.468;2022-08-19T03:03:04;17.25;;;14.10;;
68074;SDS011;54864;52.002;5.468;2022-08-19T03:04:07;18.05;;;13.40;;
68074;SDS011;54864;52.002;5.468;2022-08-19T03:05:15;19.23;;;13.80;;
68074;SDS011;54864;52.002;5.468;2022-08-19T03:06:16;19.30;;;14.02;;
68074;SDS011;54864;52.002;5.468;2022-08-19T03:07:19;18.40;;;13.82;;
68074;SDS011;54864;52.002;5.468;2022-08-19T03:08:19;16.47;;;14.03;;
68074;SDS011;54864;52.002;5.468;2022-08-19T03:09:21;15.82;;;13.98;;
68074;SDS011;54864;52.002;5.468;2022-08-19T03:10:22;21.08;;;14.32;;
68074;SDS011;54864;52.002;5.468;2022-08-19T03:11:25;17.10;;;13.47;;
68074;SDS011;54864;52.002;5.468;2022-08-19T03:12:30;17.35;;;12.90;;
68074;SDS011;54864;52.002;5.468;2022-08-19T03:13:32;16.13;;;13.38;;
68074;SDS011;54864;52.002;5.468;2022-08-19T03:14:33;15.60;;;13.32;;
68074;SDS011;54864;52.002;5.468;2022-08-19T03:15:38;19.02;;;13.90;;
68074;SDS011;54864;52.002;5.468;2022-08-19T03:16:41;18.42;;;14.25;;
68074;SDS011;54864;52.002;5.468;2022-08-19T03:17:45;17.05;;;13.55;;
68074;SDS011;54864;52.002;5.468;2022-08-19T03:18:46;17.98;;;14.25;;
68074;SDS011;54864;52.002;5.468;2022-08-19T03:19:48;18.83;;;14.90;;
68074;SDS011;54864;52.002;5.468;2022-08-19T03:20:49;21.40;;;15.93;;
68074;SDS011;54864;52.002;5.468;2022-08-19T03:21:54;17.17;;;14.52;;
68074;SDS011;54864;52.002;5.468;2022-08-19T03:22:55;18.77;;;15.55;;
68074;SDS011;54864;52.002;5.468;2022-08-19T03:23:58;18.45;;;15.20;;
68074;SDS011;54864;52.002;5.468;2022-08-19T03:25:01;19.17;;;16.20;;
68074;SDS011;54864;52.002;5.468;2022-08-19T03:26:04;23.05;;;16.08;;
68074;SDS011;54864;52.002;5.468;2022-08-19T03:27:06;17.50;;;14.75;;
68074;SDS011;54864;52.002;5.468;2022-08-19T03:28:09;20.67;;;15.23;;
68074;SDS011;54864;52.002;5.468;2022-08-19T03:29:11;18.83;;;14.20;;
68074;SDS011;54864;52.002;5.468;2022-08-19T03:30:14;21.13;;;14.65;;
68074;SDS011;54864;52.002;5.468;2022-08-19T03:31:15;18.90;;;14.10;;
68074;SDS011;54864;52.002;5.468;2022-08-19T03:32:20;21.75;;;14.63;;
68074;SDS011;54864;52.002;5.468;2022-08-19T03:33:22;17.48;;;13.50;;
68074;SDS011;54864;52.002;5.468;2022-08-19T03:34:25;21.33;;;14.35;;
68074;SDS011;54864;52.002;5.468;2022-08-19T03:35:29;19.92;;;14.93;;
68074;SDS011;54864;52.002;5.468;2022-08-19T03:36:31;21.23;;;14.98;;
68074;SDS011;54864;52.002;5.468;2022-08-19T03:37:32;20.02;;;15.05;;
68074;SDS011;54864;52.002;5.468;2022-08-19T03:38:34;22.45;;;15.15;;
68074;SDS011;54864;52.002;5.468;2022-08-19T03:39:37;18.27;;;14.02;;
68074;SDS011;54864;52.002;5.468;2022-08-19T03:40:40;18.77;;;13.88;;
68074;SDS011;54864;52.002;5.468;2022-08-19T03:41:44;20.92;;;14.93;;
68074;SDS011;54864;52.002;5.468;2022-08-19T03:42:46;21.92;;;15.10;;
68074;SDS011;54864;52.002;5.468;2022-08-19T03:43:49;18.65;;;15.15;;
68074;SDS011;54864;52.002;5.468;2022-08-19T03:44:52;20.63;;;14.55;;
68074;SDS011;54864;52.002;5.468;2022-08-19T03:45:59;21.70;;;14.70;;
68074;SDS011;54864;52.002;5.468;2022-08-19T03:47:02;22.13;;;16.40;;
68074;SDS011;54864;52.002;5.468;2022-08-19T03:48:06;23.80;;;15.97;;
68074;SDS011;54864;52.002;5.468;2022-08-19T03:49:08;22.65;;;16.02;;
68074;SDS011;54864;52.002;5.468;2022-08-19T03:50:09;27.52;;;15.65;;
68074;SDS011;54864;52.002;5.468;2022-08-19T03:51:15;21.45;;;15.82;;
68074;SDS011;54864;52.002;5.468;2022-08-19T03:52:17;22.27;;;15.80;;
68074;SDS011;54864;52.002;5.468;2022-08-19T03:53:19;19.30;;;15.05;;
68074;SDS011;54864;52.002;5.468;2022-08-19T03:54:20;20.90;;;15.40;;
68074;SDS011;54864;52.002;5.468;2022-08-19T03:55:24;18.37;;;15.77;;
68074;SDS011;54864;52.002;5.468;2022-08-19T03:56:25;18.20;;;15.93;;
68074;SDS011;54864;52.002;5.468;2022-08-19T03:57:28;17.50;;;15.10;;
68074;SDS011;54864;52.002;5.468;2022-08-19T03:58:29;18.85;;;15.63;;
68074;SDS011;54864;52.002;5.468;2022-08-19T03:59:34;22.83;;;15.68;;
68074;SDS011;54864;52.002;5.468;2022-08-19T04:00:36;36.27;;;16.73;;
68074;SDS011;54864;52.002;5.468;2022-08-19T04:01:38;27.10;;;17.40;;
68074;SDS011;54864;52.002;5.468;2022-08-19T04:02:40;23.02;;;16.13;;
68074;SDS011;54864;52.002;5.468;2022-08-19T04:03:43;24.38;;;16.02;;
68074;SDS011;54864;52.002;5.468;2022-08-19T04:04:45;18.48;;;15.82;;
68074;SDS011;54864;52.002;5.468;2022-08-19T04:05:47;26.60;;;17.40;;
68074;SDS011;54864;52.002;5.468;2022-08-19T04:06:48;23.67;;;17.93;;
68074;SDS011;54864;52.002;5.468;2022-08-19T04:07:51;26.98;;;18.17;;
68074;SDS011;54864;52.002;5.468;2022-08-19T04:08:52;20.50;;;16.67;;
68074;SDS011;54864;52.002;5.468;2022-08-19T04:09:55;25.95;;;17.85;;
68074;SDS011;54864;52.002;5.468;2022-08-19T04:10:56;22.35;;;17.50;;
68074;SDS011;54864;52.002;5.468;2022-08-19T04:11:58;19.92;;;17.77;;
68074;SDS011;54864;52.002;5.468;2022-08-19T04:12:58;22.40;;;17.92;;
68074;SDS011;54864;52.002;5.468;2022-08-19T04:14:00;25.27;;;17.92;;
68074;SDS011;54864;52.002;5.468;2022-08-19T04:15:03;24.00;;;17.73;;
68074;SDS011;54864;52.002;5.468;2022-08-19T04:16:06;21.42;;;17.52;;
68074;SDS011;54864;52.002;5.468;2022-08-19T04:17:09;24.75;;;19.15;;
68074;SDS011;54864;52.002;5.468;2022-08-19T04:18:13;30.52;;;19.75;;
68074;SDS011;54864;52.002;5.468;2022-08-19T04:19:14;28.42;;;19.85;;
68074;SDS011;54864;52.002;5.468;2022-08-19T04:20:17;24.60;;;18.88;;
68074;SDS011;54864;52.002;5.468;2022-08-19T04:21:19;24.50;;;19.53;;
68074;SDS011;54864;52.002;5.468;2022-08-19T04:22:26;24.63;;;19.42;;
68074;SDS011;54864;52.002;5.468;2022-08-19T04:23:28;28.92;;;19.02;;
68074;SDS011;54864;52.002;5.468;2022-08-19T04:24:29;25.42;;;19.42;;
68074;SDS011;54864;52.002;5.468;2022-08-19T04:25:34;23.35;;;18.85;;
68074;SDS011;54864;52.002;5.468;2022-08-19T04:26:37;24.65;;;18.88;;
68074;SDS011;54864;52.002;5.468;2022-08-19T04:27:39;22.23;;;18.17;;
68074;SDS011;54864;52.002;5.468;2022-08-19T04:28:43;26.05;;;19.33;;
68074;SDS011;54864;52.002;5.468;2022-08-19T04:29:45;23.37;;;19.30;;
68074;SDS011;54864;52.002;5.468;2022-08-19T04:30:48;26.10;;;19.55;;
68074;SDS011;54864;52.002;5.468;2022-08-19T04:31:53;25.33;;;19.52;;
68074;SDS011;54864;52.002;5.468;2022-08-19T04:32:56;24.95;;;19.67;;
68074;SDS011;54864;52.002;5.468;2022-08-19T04:33:57;26.20;;;19.27;;
68074;SDS011;54864;52.002;5.468;2022-08-19T04:35:02;22.65;;;19.30;;
68074;SDS011;54864;52.002;5.468;2022-08-19T04:36:03;24.63;;;18.20;;
68074;SDS011;54864;52.002;5.468;2022-08-19T04:37:05;23.02;;;19.45;;
68074;SDS011;54864;52.002;5.468;2022-08-19T04:38:11;24.70;;;19.70;;
68074;SDS011;54864;52.002;5.468;2022-08-19T04:39:15;26.30;;;19.25;;
68074;SDS011;54864;52.002;5.468;2022-08-19T04:40:18;25.98;;;19.75;;
68074;SDS011;54864;52.002;5.468;2022-08-19T04:41:37;26.80;;;19.45;;
68074;SDS011;54864;52.002;5.468;2022-08-19T04:42:56;24.83;;;19.77;;
68074;SDS011;54864;52.002;5.468;2022-08-19T04:43:58;29.17;;;21.13;;
68074;SDS011;54864;52.002;5.468;2022-08-19T04:44:59;28.58;;;20.85;;
68074;SDS011;54864;52.002;5.468;2022-08-19T04:46:05;25.73;;;20.73;;
68074;SDS011;54864;52.002;5.468;2022-08-19T04:47:08;34.50;;;21.85;;
68074;SDS011;54864;52.002;5.468;2022-08-19T04:48:09;32.88;;;22.83;;
68074;SDS011;54864;52.002;5.468;2022-08-19T04:49:11;30.25;;;22.00;;
68074;SDS011;54864;52.002;5.468;2022-08-19T04:50:13;34.97;;;22.67;;
68074;SDS011;54864;52.002;5.468;2022-08-19T04:51:14;44.60;;;23.75;;
68074;SDS011;54864;52.002;5.468;2022-08-19T04:52:17;36.60;;;24.13;;
68074;SDS011;54864;52.002;5.468;2022-08-19T04:53:17;34.47;;;25.13;;
68074;SDS011;54864;52.002;5.468;2022-08-19T04:54:19;30.98;;;23.35;;
68074;SDS011;54864;52.002;5.468;2022-08-19T04:55:22;36.38;;;24.75;;
68074;SDS011;54864;52.002;5.468;2022-08-19T04:56:26;35.65;;;24.60;;
68074;SDS011;54864;52.002;5.468;2022-08-19T04:57:27;33.22;;;24.92;;
68074;SDS011;54864;52.002;5.468;2022-08-19T04:58:29;33.55;;;24.67;;
68074;SDS011;54864;52.002;5.468;2022-08-19T04:59:30;38.25;;;25.15;;
68074;SDS011;54864;52.002;5.468;2022-08-19T05:00:32;33.87;;;25.10;;
68074;SDS011;54864;52.002;5.468;2022-08-19T05:01:34;45.15;;;24.70;;
68074;SDS011;54864;52.002;5.468;2022-08-19T05:02:36;39.55;;;24.67;;
68074;SDS011;54864;52.002;5.468;2022-08-19T05:03:38;34.73;;;26.07;;
68074;SDS011;54864;52.002;5.468;2022-08-19T05:04:40;41.67;;;26.90;;
68074;SDS011;54864;52.002;5.468;2022-08-19T05:05:41;36.88;;;25.75;;
68074;SDS011;54864;52.002;5.468;2022-08-19T05:06:43;37.22;;;24.80;;
68074;SDS011;54864;52.002;5.468;2022-08-19T05:07:44;31.63;;;25.05;;
68074;SDS011;54864;52.002;5.468;2022-08-19T05:08:46;31.55;;;24.38;;
68074;SDS011;54864;52.002;5.468;2022-08-19T05:09:47;35.47;;;24.15;;
68074;SDS011;54864;52.002;5.468;2022-08-19T05:10:50;33.92;;;24.90;;
68074;SDS011;54864;52.002;5.468;2022-08-19T05:11:51;33.55;;;24.80;;
68074;SDS011;54864;52.002;5.468;2022-08-19T05:12:53;31.45;;;24.40;;
68074;SDS011;54864;52.002;5.468;2022-08-19T05:13:54;36.33;;;24.75;;
68074;SDS011;54864;52.002;5.468;2022-08-19T05:14:57;35.08;;;25.13;;
68074;SDS011;54864;52.002;5.468;2022-08-19T05:15:59;43.00;;;26.77;;
68074;SDS011;54864;52.002;5.468;2022-08-19T05:17:02;31.33;;;24.55;;
68074;SDS011;54864;52.002;5.468;2022-08-19T05:18:03;31.23;;;24.95;;
68074;SDS011;54864;52.002;5.468;2022-08-19T05:19:22;32.65;;;25.27;;
68074;SDS011;54864;52.002;5.468;2022-08-19T05:20:42;33.03;;;25.20;;
68074;SDS011;54864;52.002;5.468;2022-08-19T05:22:01;33.28;;;24.75;;
68074;SDS011;54864;52.002;5.468;2022-08-19T05:23:21;31.73;;;25.55;;
68074;SDS011;54864;52.002;5.468;2022-08-19T05:24:23;31.90;;;24.80;;
68074;SDS011;54864;52.002;5.468;2022-08-19T05:25:24;33.75;;;26.15;;
68074;SDS011;54864;52.002;5.468;2022-08-19T05:26:26;33.35;;;25.45;;
68074;SDS011;54864;52.002;5.468;2022-08-19T05:27:27;33.72;;;25.35;;
68074;SDS011;54864;52.002;5.468;2022-08-19T05:28:29;30.60;;;25.27;;
68074;SDS011;54864;52.002;5.468;2022-08-19T05:29:29;30.00;;;24.30;;
68074;SDS011;54864;52.002;5.468;2022-08-19T05:30:32;32.08;;;24.95;;
68074;SDS011;54864;52.002;5.468;2022-08-19T05:31:34;32.55;;;25.77;;
68074;SDS011;54864;52.002;5.468;2022-08-19T05:32:39;32.08;;;25.17;;
68074;SDS011;54864;52.002;5.468;2022-08-19T05:33:42;32.77;;;24.47;;
68074;SDS011;54864;52.002;5.468;2022-08-19T05:34:44;33.08;;;24.90;;
68074;SDS011;54864;52.002;5.468;2022-08-19T05:35:44;30.65;;;24.17;;
68074;SDS011;54864;52.002;5.468;2022-08-19T05:36:50;35.50;;;25.13;;
68074;SDS011;54864;52.002;5.468;2022-08-19T05:37:55;35.58;;;25.15;;
68074;SDS011;54864;52.002;5.468;2022-08-19T05:38:57;31.67;;;24.13;;
68074;SDS011;54864;52.002;5.468;2022-08-19T05:39:58;30.88;;;24.00;;
68074;SDS011;54864;52.002;5.468;2022-08-19T05:41:00;34.35;;;24.67;;
68074;SDS011;54864;52.002;5.468;2022-08-19T05:42:02;29.05;;;23.38;;
68074;SDS011;54864;52.002;5.468;2022-08-19T05:43:07;36.10;;;22.03;;
68074;SDS011;54864;52.002;5.468;2022-08-19T05:44:09;28.50;;;22.02;;
68074;SDS011;54864;52.002;5.468;2022-08-19T05:45:11;33.65;;;22.00;;
68074;SDS011;54864;52.002;5.468;2022-08-19T05:46:16;28.98;;;20.60;;
68074;SDS011;54864;52.002;5.468;2022-08-19T05:47:19;29.05;;;19.88;;
68074;SDS011;54864;52.002;5.468;2022-08-19T05:48:22;25.33;;;20.33;;
68074;SDS011;54864;52.002;5.468;2022-08-19T05:49:26;24.43;;;19.97;;
68074;SDS011;54864;52.002;5.468;2022-08-19T05:50:27;21.27;;;18.50;;
68074;SDS011;54864;52.002;5.468;2022-08-19T05:51:30;21.02;;;17.42;;
68074;SDS011;54864;52.002;5.468;2022-08-19T05:52:31;21.00;;;17.58;;
68074;SDS011;54864;52.002;5.468;2022-08-19T05:53:33;19.55;;;17.10;;
68074;SDS011;54864;52.002;5.468;2022-08-19T05:54:36;21.52;;;18.60;;
68074;SDS011;54864;52.002;5.468;2022-08-19T05:55:40;23.08;;;19.17;;
68074;SDS011;54864;52.002;5.468;2022-08-19T05:56:41;22.38;;;19.75;;
68074;SDS011;54864;52.002;5.468;2022-08-19T05:57:44;22.80;;;19.25;;
68074;SDS011;54864;52.002;5.468;2022-08-19T05:58:44;22.90;;;20.23;;
68074;SDS011;54864;52.002;5.468;2022-08-19T05:59:47;23.27;;;20.73;;
68074;SDS011;54864;52.002;5.468;2022-08-19T06:00:51;24.52;;;20.40;;
68074;SDS011;54864;52.002;5.468;2022-08-19T06:01:54;24.80;;;20.63;;
68074;SDS011;54864;52.002;5.468;2022-08-19T06:02:56;26.77;;;21.10;;
68074;SDS011;54864;52.002;5.468;2022-08-19T06:04:01;26.10;;;21.58;;
68074;SDS011;54864;52.002;5.468;2022-08-19T06:05:04;28.10;;;20.83;;
68074;SDS011;54864;52.002;5.468;2022-08-19T06:06:09;26.60;;;21.90;;
68074;SDS011;54864;52.002;5.468;2022-08-19T06:07:13;28.15;;;21.30;;
68074;SDS011;54864;52.002;5.468;2022-08-19T06:08:16;27.17;;;22.08;;